LTAH Airport Information

Runway Information
Runway 13R Length 9843 ft width 148 ft
Elevation 3310 ft Threshold ft Heading 134
Runway 31L Length 9843 ft Width 148 ft
Elevation 3268 ft Threshold ft Heading 314
Runway 13L Length 12008 ft width 148 ft
Elevation 3310 ft Threshold ft Heading 133
Runway 31R Length 12008 ft Width 148 ft
Elevation 3265 ft Threshold ft Heading 313
Airport Frequencies
Type APP Name APP Frequency 122.1 MHZ
Type TWR Name TWR Frequency 122.1 MHZ
Airport Navaids
Type TACAN Name Afyon Frequency 115200 KHZ
Type VOR-DME Name Afyon Frequency 112200 KHZ
Type NDB Name Afyon Frequency 324 KHZ
Airport Weather Information & NOTAM
ADDS - METARS form results

(2230 UTC 04 December 2022)
Data provider http://aviationweather.gov/metar/data/
 
Forecast for: LTAH (AFYON (MIL) , TR)
Text: TAF LTAH 041340Z 0415/0424 VRB02KT 6000 NSC
Forecast period: 1500 UTC 04 December 2022 to 0000 UTC 05 December 2022
Forecast type: FROM: standard forecast or significant change
Winds: variable direction winds at 2 MPH (2 knots; 1.0 m/s)
Visibility: 4 miles (6 km)
Ceiling: unknown
Clouds: missing
Weather: no significant weather forecast for this period
Text: PROB40
Forecast period: 2000 UTC 04 December 2022 to 0000 UTC 05 December 2022
Forecast type: TEMPORARY: The following changes expected for less than half the time period
Visibility: 1.55 miles (2.49 km)
Ceiling: unknown
Clouds: missing
Weather: BR  (mist)